Kapolei, HI (96707)

4:29 PM HST on December 22, 2014 (GMT -1000)
Upper Makakilo | Change Station
CLOSE
Current Station
Personal Weather Station
Location: Makakilo City, HI
Elevation: 1060 ft
Nearby Weather Stations
Active Advisory: Flash Flood Watch

Elev 1060 ft 21.37 °N, 158.09 °W | Updated 5 seconds ago

Mostly Cloudy
Mostly Cloudy
66.7 °F
Feels Like 66.7 °F
N
15.5
Wind Variable Wind from NNW
Gusts 27.6 mph

Today
High -- | Low -- °F
--% Chance of Precip.
Yesterday
High -- | Low -- °F
Precip. -- in
7:06 AM 5:56 PM
New Moon, 1% visible
Pressure 30.01 in
Visibility 10.0 miles
Clouds Few 2600 ft
Scattered Clouds 3700 ft
Mostly Cloudy 4500 ft
Dew Point 62 °F
Humidity 84%
Rainfall 0.02 in
Snow Depth Not available.
UV 0.8 out of 12
Pollen Not available.
Air Quality Not available.
Flu Activity Not available.
METAR PHJR 230153Z 01010G20KT 330V060 10SM FEW026 SCT037 BKN045 22/17 A2999 RMK AO2 SLP161 T02220172

More Conditions Fewer Conditions

Pressure 30.01 in
Visibility 10.0 miles
Clouds Few 2600 ft
Scattered Clouds 3700 ft
Mostly Cloudy 4500 ft
Dew Point 62 °F
Humidity 84%
Rainfall 0.02 in
Snow Depth Not available.
UV 0.8 out of 12
Pollen Not available.
Air Quality Not available.
Flu Activity Not available.
METAR PHJR 230153Z 01010G20KT 330V060 10SM FEW026 SCT037 BKN045 22/17 A2999 RMK AO2 SLP161 T02220172

More Conditions Fewer Conditions

10-Day Weather Forecast

Almanac

Astronomy

Dec. 22, 2014 Rise Set
Actual Time
Civil Twilight
Nautical Twilight
Astronomical Twilight
Moon
Length of Visible Light
Length of Day
Tomorrow will be .
, % of the Moon is Illuminated

Today's Extremes

State Highs State Lows

Community

WunderPhotos

Upload Photos

1,779,761 photos uploaded!

WunderBlogs® & News

Nearby

Air Quality

  Air Quality AQ Index Pollutant
Not available.

Snow Depth

Station Depth Elevation

Earthquake Activity

City Distance Mag. Time & Date
Minimum magnitude displayed is 2.5.

Coastal Water Temperatures

Place Temperature

Nearby Weather Stations